createdAt,value
2018-07-04T00:02:29.245Z,5.57
2018-07-04T00:05:08.866Z,4.90
2018-07-04T00:07:42.420Z,6.30
2018-07-04T00:10:22.128Z,6.40
2018-07-04T00:13:01.812Z,4.57
2018-07-04T00:15:42.132Z,5.20
2018-07-04T00:18:21.700Z,4.40
2018-07-04T00:21:01.516Z,5.17
2018-07-04T00:23:41.238Z,5.03
2018-07-04T00:26:14.942Z,4.13
2018-07-04T00:28:48.550Z,4.40
2018-07-04T00:31:22.222Z,3.97
2018-07-04T00:34:01.953Z,5.30
2018-07-04T00:36:41.688Z,4.20
2018-07-04T00:39:21.339Z,4.33
2018-07-04T00:42:00.778Z,4.07
2018-07-04T00:44:40.540Z,4.63
2018-07-04T00:47:20.299Z,4.80
2018-07-04T00:50:00.065Z,4.83
2018-07-04T00:52:39.683Z,4.43
2018-07-04T00:55:19.348Z,4.00
2018-07-04T00:57:58.994Z,5.53
2018-07-04T01:00:38.744Z,4.90
2018-07-04T01:03:18.721Z,4.20
2018-07-04T01:05:58.463Z,4.70
2018-07-04T01:08:38.203Z,5.37
2018-07-04T01:11:17.956Z,5.40
2018-07-04T01:13:57.659Z,6.33
2018-07-04T01:16:37.187Z,5.80
2018-07-04T01:19:10.902Z,4.60
2018-07-04T01:21:44.471Z,5.07
2018-07-04T01:24:18.163Z,4.73
2018-07-04T01:26:57.828Z,5.07
2018-07-04T01:29:37.488Z,5.27
2018-07-04T01:32:11.075Z,5.40
2018-07-04T01:34:50.840Z,6.20
2018-07-04T01:37:30.619Z,6.07
2018-07-04T01:40:10.426Z,5.47
2018-07-04T01:42:43.888Z,5.87
2018-07-04T01:45:23.666Z,5.30
2018-07-04T01:48:03.201Z,5.27
2018-07-04T01:50:42.857Z,5.67
2018-07-04T01:53:22.475Z,5.73
2018-07-04T01:56:02.075Z,5.80
2018-07-04T01:58:41.820Z,6.43
2018-07-04T02:01:21.412Z,6.00
2018-07-04T02:03:55.120Z,5.60
2018-07-04T02:06:28.689Z,6.20
2018-07-04T02:09:09.440Z,5.60
2018-07-04T02:11:48.840Z,5.40
2018-07-04T02:14:28.619Z,5.70
2018-07-04T02:17:08.164Z,6.07
2018-07-04T02:19:47.762Z,5.30
2018-07-04T02:22:27.480Z,6.20
2018-07-04T02:25:07.273Z,6.43
2018-07-04T02:27:46.767Z,5.50
2018-07-04T02:30:26.439Z,6.03
2018-07-04T02:33:06.055Z,5.47
2018-07-04T02:35:45.704Z,5.50
2018-07-04T02:38:19.179Z,6.83
2018-07-04T02:40:58.764Z,7.30
2018-07-04T02:43:38.263Z,6.10
2018-07-04T02:46:23.460Z,5.40
2018-07-04T02:48:57.010Z,7.23
2018-07-04T02:51:36.802Z,6.33
2018-07-04T02:54:16.509Z,6.10
2018-07-04T02:56:56.114Z,6.40
2018-07-04T02:59:35.745Z,6.10
2018-07-04T03:02:15.416Z,6.30
2018-07-04T03:04:55.028Z,6.40
2018-07-04T03:07:34.681Z,6.80
2018-07-04T03:10:14.445Z,6.00
2018-07-04T03:12:54.153Z,6.73
2018-07-04T03:15:33.797Z,5.90
2018-07-04T03:18:13.404Z,5.73
2018-07-04T03:20:53.109Z,6.40
2018-07-04T03:23:32.688Z,7.00
2018-07-04T03:26:12.362Z,6.30
2018-07-04T03:28:51.954Z,5.90
2018-07-04T03:31:31.578Z,5.57
2018-07-04T03:34:11.181Z,6.17
2018-07-04T03:36:44.752Z,5.67
2018-07-04T03:39:24.537Z,6.07
2018-07-04T03:42:04.230Z,6.90
2018-07-04T03:44:43.912Z,6.10
2018-07-04T03:47:17.520Z,5.63
2018-07-04T03:49:57.139Z,6.20
2018-07-04T03:52:36.836Z,6.07
2018-07-04T03:55:16.375Z,6.23
2018-07-04T03:57:56.037Z,6.30
2018-07-04T04:00:35.664Z,6.27
2018-07-04T04:03:15.364Z,6.60
2018-07-04T04:05:48.846Z,6.10
2018-07-04T04:08:28.423Z,6.40
2018-07-04T04:11:08.144Z,5.93
2018-07-04T04:13:47.904Z,6.40
2018-07-04T04:16:27.607Z,4.80
2018-07-04T04:19:07.592Z,5.40
2018-07-04T04:21:47.146Z,6.27
2018-07-04T04:24:26.931Z,4.87
2018-07-04T04:27:06.600Z,4.97
2018-07-04T04:29:46.222Z,5.93
2018-07-04T04:32:25.852Z,5.63
2018-07-04T04:35:05.576Z,5.93
2018-07-04T04:37:45.166Z,5.47
2018-07-04T04:40:24.847Z,5.50
2018-07-04T04:43:04.449Z,5.27
2018-07-04T04:45:44.232Z,4.70
2018-07-04T04:48:23.616Z,4.57
2018-07-04T04:51:03.388Z,5.53
2018-07-04T04:53:43.092Z,5.20
2018-07-04T04:56:22.676Z,5.10
2018-07-04T04:58:56.059Z,4.40
2018-07-04T05:01:35.509Z,5.87
2018-07-04T05:04:09.227Z,4.83
2018-07-04T05:06:48.946Z,4.73
2018-07-04T05:09:28.772Z,4.70
2018-07-04T05:12:08.535Z,6.13
2018-07-04T05:14:48.320Z,4.07
2018-07-04T05:17:28.035Z,4.60
2018-07-04T05:20:07.823Z,5.13
2018-07-04T05:22:47.532Z,4.47
2018-07-04T05:25:27.164Z,4.33
2018-07-04T05:28:06.755Z,4.00
2018-07-04T05:30:46.575Z,4.70
2018-07-04T05:33:26.291Z,3.90
2018-07-04T05:36:05.923Z,3.93
2018-07-04T05:38:45.592Z,4.40
2018-07-04T05:41:19.282Z,4.90
2018-07-04T05:43:52.983Z,4.67
2018-07-04T05:46:32.712Z,5.07
2018-07-04T05:49:12.388Z,4.37
2018-07-04T05:51:51.903Z,5.63
2018-07-04T05:54:31.814Z,5.17
2018-07-04T05:57:11.624Z,5.33
2018-07-04T05:59:51.212Z,4.40
2018-07-04T06:02:30.897Z,4.10
2018-07-04T06:05:04.599Z,3.50
2018-07-04T06:07:38.159Z,3.67
2018-07-04T06:10:17.779Z,3.13
2018-07-04T06:12:57.476Z,3.17
2018-07-04T06:15:37.015Z,2.70
2018-07-04T06:18:16.787Z,2.83
2018-07-04T06:20:56.449Z,3.97
2018-07-04T06:23:36.259Z,4.23
2018-07-04T06:26:09.838Z,2.80
2018-07-04T06:28:49.591Z,3.40
2018-07-04T06:31:23.175Z,3.37
2018-07-04T06:34:02.852Z,3.20
2018-07-04T06:36:36.545Z,3.67
2018-07-04T06:39:04.611Z,3.73
2018-07-04T06:41:31.752Z,3.30
2018-07-04T06:43:59.191Z,4.30
2018-07-04T06:46:26.387Z,3.67
2018-07-04T06:48:53.842Z,2.80
2018-07-04T06:51:21.302Z,3.00
2018-07-04T06:53:48.743Z,3.03
2018-07-04T06:56:16.203Z,2.70
2018-07-04T06:58:43.660Z,3.10
2018-07-04T07:01:11.118Z,2.90
2018-07-04T07:03:44.812Z,3.80
2018-07-04T07:06:24.476Z,3.17
2018-07-04T07:09:04.732Z,2.70
2018-07-04T07:11:44.723Z,2.93
2018-07-04T07:14:24.443Z,4.00
2018-07-04T07:16:58.032Z,3.30
2018-07-04T07:19:37.536Z,3.80
2018-07-04T07:22:17.053Z,3.60
2018-07-04T07:24:56.700Z,2.50
2018-07-04T07:27:36.257Z,3.10
2018-07-04T07:30:15.766Z,3.20
2018-07-04T07:32:55.451Z,3.67
2018-07-04T07:35:30.064Z,2.80
2018-07-04T07:38:09.732Z,3.67
2018-07-04T07:40:43.362Z,3.33
2018-07-04T07:43:22.924Z,3.33
2018-07-04T07:46:02.586Z,2.87
2018-07-04T07:48:36.319Z,2.70
2018-07-04T07:51:09.915Z,2.80
2018-07-04T07:53:43.627Z,2.50
2018-07-04T07:56:23.260Z,3.63
2018-07-04T07:58:56.947Z,3.60
2018-07-04T08:01:36.743Z,3.40
2018-07-04T08:04:16.529Z,3.33
2018-07-04T08:06:56.303Z,3.20
2018-07-04T08:09:35.936Z,3.77
2018-07-04T08:12:09.543Z,2.60
2018-07-04T08:14:49.276Z,3.30
2018-07-04T08:17:28.929Z,3.20
2018-07-04T08:20:08.804Z,2.90
2018-07-04T08:22:48.511Z,3.50
2018-07-04T08:25:28.160Z,4.33
2018-07-04T08:28:07.871Z,3.60
2018-07-04T08:30:47.423Z,3.63
2018-07-04T08:33:27.025Z,4.63
2018-07-04T08:36:06.662Z,2.87
2018-07-04T08:38:46.311Z,3.07
2018-07-04T08:41:25.992Z,3.10
2018-07-04T08:44:05.789Z,2.70
2018-07-04T08:46:46.016Z,3.07
2018-07-04T08:49:19.577Z,2.47
2018-07-04T08:51:59.343Z,2.87
2018-07-04T08:54:39.092Z,3.40
2018-07-04T08:57:12.619Z,4.10
2018-07-04T08:59:52.383Z,2.50
2018-07-04T09:02:32.076Z,2.93
2018-07-04T09:05:11.701Z,2.43
2018-07-04T09:07:51.348Z,2.83
2018-07-04T09:10:30.981Z,2.80
2018-07-04T09:13:10.608Z,3.90
2018-07-04T09:15:50.288Z,2.80
2018-07-04T09:18:30.018Z,2.23
2018-07-04T09:21:09.444Z,2.50
2018-07-04T09:23:49.120Z,2.50
2018-07-04T09:26:28.733Z,2.43
2018-07-04T09:29:08.512Z,2.80
2018-07-04T09:31:41.998Z,2.37
2018-07-04T09:34:21.771Z,2.90
2018-07-04T09:37:01.388Z,3.20
2018-07-04T09:39:41.147Z,2.20
2018-07-04T09:42:14.839Z,2.27
2018-07-04T09:44:48.503Z,3.00
2018-07-04T09:47:28.298Z,2.77
2018-07-04T09:50:02.016Z,3.33
2018-07-04T09:52:35.743Z,2.47
2018-07-04T09:55:15.404Z,3.30
2018-07-04T09:57:54.980Z,2.73
2018-07-04T10:00:29.751Z,2.20
2018-07-04T10:03:10.683Z,2.50
2018-07-04T10:05:44.112Z,2.60
2018-07-04T10:08:23.676Z,2.80
2018-07-04T10:11:03.619Z,2.60
2018-07-04T10:13:43.407Z,2.43
2018-07-04T10:16:23.125Z,2.13
2018-07-04T10:19:02.671Z,1.90
2018-07-04T10:21:42.515Z,3.40
2018-07-04T10:24:22.284Z,2.80
2018-07-04T10:27:02.052Z,3.20
2018-07-04T10:29:41.640Z,3.40
2018-07-04T10:32:21.772Z,2.83
2018-07-04T10:35:01.502Z,2.93
2018-07-04T10:37:41.237Z,2.67
2018-07-04T10:40:20.960Z,2.03
2018-07-04T10:42:54.680Z,2.93
2018-07-04T10:45:34.604Z,2.80
2018-07-04T10:48:14.148Z,2.80
2018-07-04T10:50:53.795Z,3.10
2018-07-04T10:53:33.463Z,2.20
2018-07-04T10:56:13.047Z,3.13
2018-07-04T10:58:52.691Z,3.00
2018-07-04T11:01:32.359Z,2.10
2018-07-04T11:04:12.096Z,3.03
2018-07-04T11:06:51.744Z,2.50
2018-07-04T11:09:31.351Z,2.33
2018-07-04T11:12:11.104Z,2.53
2018-07-04T11:14:50.592Z,3.33
2018-07-04T11:17:30.116Z,3.03
2018-07-04T11:20:03.811Z,2.13
2018-07-04T11:22:43.508Z,2.80
2018-07-04T11:25:23.212Z,2.70
2018-07-04T11:27:56.815Z,2.40
2018-07-04T11:30:36.423Z,3.10
2018-07-04T11:33:15.970Z,3.23
2018-07-04T11:35:55.632Z,3.50
2018-07-04T11:38:29.290Z,2.37
2018-07-04T11:41:02.707Z,2.83
2018-07-04T11:43:42.363Z,2.90
2018-07-04T11:46:09.574Z,3.30
2018-07-04T11:48:37.411Z,3.80
2018-07-04T11:51:04.616Z,3.20
2018-07-04T11:53:31.812Z,3.03
2018-07-04T11:55:59.024Z,2.47
2018-07-04T11:58:26.221Z,3.40
2018-07-04T12:00:53.413Z,3.17
2018-07-04T12:03:22.094Z,3.57
2018-07-04T12:06:01.993Z,3.07
2018-07-04T12:08:29.183Z,3.90
2018-07-04T12:10:56.893Z,3.80
2018-07-04T12:13:25.376Z,3.43
2018-07-04T12:15:53.088Z,3.83
2018-07-04T12:18:20.276Z,3.90
2018-07-04T12:20:47.479Z,4.50
2018-07-04T12:23:15.107Z,3.40
2018-07-04T12:25:43.374Z,4.07
2018-07-04T12:28:10.868Z,3.27
2018-07-04T12:30:38.075Z,3.63
2018-07-04T12:33:05.539Z,2.83
2018-07-04T12:35:32.980Z,3.73
2018-07-04T12:38:00.216Z,3.40
2018-07-04T12:40:27.408Z,3.17
2018-07-04T12:42:54.611Z,3.30
2018-07-04T12:45:21.808Z,2.73
2018-07-04T12:47:49.024Z,2.60
2018-07-04T12:50:26.234Z,3.40
2018-07-04T12:52:53.655Z,2.87
2018-07-04T12:55:35.903Z,3.20
2018-07-04T12:58:15.951Z,2.60
2018-07-04T13:00:55.680Z,3.93
2018-07-04T13:03:29.386Z,3.97
2018-07-04T13:06:03.084Z,2.93
2018-07-04T13:08:42.748Z,3.37
2018-07-04T13:11:22.501Z,3.30
2018-07-04T13:14:03.190Z,3.43
2018-07-04T13:16:42.737Z,3.23
2018-07-04T13:19:23.022Z,2.90
2018-07-04T13:22:02.698Z,4.07
2018-07-04T13:24:42.348Z,2.57
2018-07-04T13:27:22.313Z,3.77
2018-07-04T13:30:01.812Z,3.70
2018-07-04T13:32:41.436Z,3.43
2018-07-04T13:35:21.000Z,3.63
2018-07-04T13:38:00.680Z,3.97
2018-07-04T13:40:40.267Z,3.70
2018-07-04T13:43:20.244Z,2.80
2018-07-04T13:45:59.895Z,4.00
2018-07-04T13:48:40.532Z,2.90
2018-07-04T13:51:20.271Z,3.23
2018-07-04T13:53:59.962Z,3.60
2018-07-04T13:56:39.612Z,3.20
2018-07-04T13:59:19.304Z,3.90
2018-07-04T14:01:59.057Z,3.40
2018-07-04T14:04:32.859Z,3.10
2018-07-04T14:07:06.358Z,2.60
2018-07-04T14:09:39.960Z,2.77
2018-07-04T14:12:13.560Z,2.40
2018-07-04T14:14:47.254Z,3.37
2018-07-04T14:17:27.046Z,3.60
2018-07-04T14:20:06.667Z,2.70
2018-07-04T14:22:46.231Z,2.47
2018-07-04T14:25:25.999Z,3.00
2018-07-04T14:28:05.687Z,2.60
2018-07-04T14:30:45.326Z,3.67
2018-07-04T14:33:24.952Z,3.50
2018-07-04T14:36:04.601Z,2.87
2018-07-04T14:38:44.280Z,3.30
2018-07-04T14:41:23.898Z,3.50
2018-07-04T14:43:57.390Z,3.37
2018-07-04T14:46:30.980Z,2.93
2018-07-04T14:49:10.741Z,3.47
2018-07-04T14:51:44.298Z,3.57
2018-07-04T14:54:24.056Z,3.43
2018-07-04T14:57:03.585Z,2.53
2018-07-04T14:59:43.263Z,3.23
2018-07-04T15:02:16.695Z,2.50
2018-07-04T15:04:56.404Z,1.93
2018-07-04T15:07:29.786Z,1.80
2018-07-04T15:10:09.334Z,2.60
2018-07-04T15:12:43.080Z,2.20
2018-07-04T15:15:22.675Z,1.67
2018-07-04T15:18:02.477Z,1.53
2018-07-04T15:20:42.078Z,2.20
2018-07-04T15:23:15.683Z,2.07
2018-07-04T15:25:55.412Z,2.30
2018-07-04T15:28:35.051Z,1.87
2018-07-04T15:31:14.688Z,2.00
2018-07-04T15:33:54.459Z,2.17
2018-07-04T15:36:34.288Z,2.10
2018-07-04T15:39:07.740Z,1.73
2018-07-04T15:41:47.540Z,2.17
2018-07-04T15:44:21.139Z,1.97
2018-07-04T15:46:54.687Z,2.07
2018-07-04T15:49:34.297Z,2.30
2018-07-04T15:52:07.972Z,1.50
2018-07-04T15:54:41.697Z,2.00
2018-07-04T15:57:21.319Z,1.83
2018-07-04T16:00:00.971Z,1.93
2018-07-04T16:02:35.175Z,2.73
2018-07-04T16:05:14.844Z,2.20
2018-07-04T16:07:54.584Z,2.70
2018-07-04T16:10:34.212Z,1.80
2018-07-04T16:13:13.740Z,2.43
2018-07-04T16:15:53.341Z,1.90
2018-07-04T16:18:33.055Z,2.20
2018-07-04T16:21:12.767Z,2.00
2018-07-04T16:23:52.448Z,1.83
2018-07-04T16:26:32.115Z,1.20
2018-07-04T16:29:11.707Z,1.83
2018-07-04T16:31:51.347Z,1.63
2018-07-04T16:34:25.051Z,1.73
2018-07-04T16:36:58.639Z,1.30
2018-07-04T16:39:38.192Z,1.90
2018-07-04T16:42:11.856Z,1.47
2018-07-04T16:44:51.374Z,1.77
2018-07-04T16:47:31.112Z,1.50
2018-07-04T16:50:10.835Z,1.70
2018-07-04T16:52:50.801Z,1.87
2018-07-04T16:55:30.649Z,1.57
2018-07-04T16:58:10.300Z,1.67
2018-07-04T17:00:49.911Z,1.70
2018-07-04T17:03:29.520Z,1.43
2018-07-04T17:06:09.512Z,1.57
2018-07-04T17:08:49.043Z,1.73
2018-07-04T17:11:22.883Z,1.60
2018-07-04T17:14:02.568Z,1.63
2018-07-04T17:16:42.347Z,1.60
2018-07-04T17:19:21.951Z,1.20
2018-07-04T17:22:01.627Z,2.10
2018-07-04T17:24:41.219Z,1.53
2018-07-04T17:27:20.916Z,1.40
2018-07-04T17:30:00.588Z,1.50
2018-07-04T17:32:40.391Z,1.20
2018-07-04T17:35:13.944Z,1.40
2018-07-04T17:37:53.567Z,2.00
2018-07-04T17:40:33.478Z,1.23
2018-07-04T17:43:06.963Z,1.40
2018-07-04T17:45:46.736Z,2.07
2018-07-04T17:48:26.456Z,1.00
2018-07-04T17:51:06.479Z,1.00
2018-07-04T17:53:46.791Z,1.40
2018-07-04T17:56:26.519Z,1.87
2018-07-04T17:59:00.255Z,2.17
2018-07-04T18:01:39.885Z,1.20
2018-07-04T18:04:19.705Z,1.30
2018-07-04T18:06:53.315Z,1.20
2018-07-04T18:09:32.986Z,1.40
2018-07-04T18:12:12.835Z,1.20
2018-07-04T18:14:52.360Z,1.50
2018-07-04T18:17:31.887Z,1.33
2018-07-04T18:20:11.687Z,1.57
2018-07-04T18:22:51.506Z,1.60
2018-07-04T18:25:31.054Z,1.50
2018-07-04T18:28:10.754Z,1.47
2018-07-04T18:30:44.190Z,1.83
2018-07-04T18:33:23.784Z,1.40
2018-07-04T18:36:03.412Z,1.60
2018-07-04T18:38:43.043Z,1.10
2018-07-04T18:41:22.616Z,1.53
2018-07-04T18:43:56.265Z,1.33
2018-07-04T18:46:35.785Z,1.40
2018-07-04T18:49:15.433Z,2.23
2018-07-04T18:51:54.982Z,1.73
2018-07-04T18:54:34.747Z,1.80
2018-07-04T18:57:14.368Z,1.53
2018-07-04T18:59:54.304Z,1.80
2018-07-04T19:02:34.016Z,2.40
2018-07-04T19:05:07.726Z,1.80
2018-07-04T19:07:41.238Z,1.40
2018-07-04T19:10:21.000Z,1.67
2018-07-04T19:13:00.734Z,1.67
2018-07-04T19:15:40.408Z,1.50
2018-07-04T19:18:20.275Z,1.60
2018-07-04T19:20:59.863Z,1.40
2018-07-04T19:23:39.641Z,1.43
2018-07-04T19:26:20.154Z,1.20
2018-07-04T19:28:53.829Z,1.20
2018-07-04T19:31:33.632Z,1.60
2018-07-04T19:34:13.424Z,1.50
2018-07-04T19:36:53.312Z,1.80
2018-07-04T19:39:33.229Z,1.53
2018-07-04T19:42:12.976Z,1.73
2018-07-04T19:44:52.599Z,1.80
2018-07-04T19:47:32.263Z,1.60
2018-07-04T19:50:11.955Z,1.37
2018-07-04T19:52:51.437Z,1.40
2018-07-04T19:55:31.141Z,1.93
2018-07-04T19:58:10.810Z,1.90
2018-07-04T20:00:50.407Z,1.80
2018-07-04T20:03:30.116Z,1.50
2018-07-04T20:06:04.004Z,2.13
2018-07-04T20:08:43.668Z,2.37
2018-07-04T20:11:17.413Z,1.83
2018-07-04T20:13:57.123Z,2.60
2018-07-04T20:16:36.928Z,2.20
2018-07-04T20:19:16.592Z,2.60
2018-07-04T20:21:56.253Z,2.23
2018-07-04T20:24:35.987Z,2.47
2018-07-04T20:27:16.017Z,2.37
2018-07-04T20:29:55.660Z,2.30
2018-07-04T20:32:35.578Z,2.53
2018-07-04T20:35:15.276Z,2.37
2018-07-04T20:37:54.791Z,2.47
2018-07-04T20:40:34.364Z,2.60
2018-07-04T20:43:14.119Z,2.37
2018-07-04T20:45:53.718Z,2.93
2018-07-04T20:48:33.484Z,2.93
2018-07-04T20:51:13.144Z,2.50
2018-07-04T20:53:52.818Z,2.40
2018-07-04T20:56:32.972Z,3.17
2018-07-04T20:59:12.644Z,2.90
2018-07-04T21:01:52.323Z,3.27
2018-07-04T21:04:25.883Z,3.30
2018-07-04T21:07:05.570Z,2.70
2018-07-04T21:09:45.203Z,3.47
2018-07-04T21:12:18.894Z,2.80
2018-07-04T21:14:58.667Z,3.40
2018-07-04T21:17:38.389Z,3.27
2018-07-04T21:20:18.029Z,3.67
2018-07-04T21:22:57.714Z,3.90
2018-07-04T21:25:37.291Z,3.37
2018-07-04T21:28:16.959Z,3.90
2018-07-04T21:30:56.668Z,3.40
2018-07-04T21:33:36.411Z,3.90
2018-07-04T21:36:15.933Z,4.80
2018-07-04T21:38:55.627Z,3.53
2018-07-04T21:41:29.372Z,3.50
2018-07-04T21:44:10.056Z,3.73
2018-07-04T21:46:49.624Z,3.53
2018-07-04T21:49:29.364Z,4.00
2018-07-04T21:52:08.914Z,4.10
2018-07-04T21:54:48.564Z,4.07
2018-07-04T21:57:28.103Z,4.30
2018-07-04T22:00:07.860Z,4.80
2018-07-04T22:02:41.456Z,4.83
2018-07-04T22:05:21.045Z,3.87
2018-07-04T22:08:00.847Z,5.00
2018-07-04T22:10:40.549Z,4.40
2018-07-04T22:13:20.207Z,5.10
2018-07-04T22:15:59.793Z,4.07
2018-07-04T22:18:39.420Z,5.03
2018-07-04T22:21:18.960Z,5.13
2018-07-04T22:23:58.703Z,5.07
2018-07-04T22:26:38.399Z,4.80
2018-07-04T22:29:17.895Z,5.60
2018-07-04T22:31:51.572Z,4.97
2018-07-04T22:34:31.247Z,5.90
2018-07-04T22:37:10.828Z,6.00
2018-07-04T22:39:50.464Z,5.30
2018-07-04T22:42:30.036Z,5.10
2018-07-04T22:45:09.695Z,5.63
2018-07-04T22:47:43.454Z,5.73
2018-07-04T22:50:23.534Z,5.80
2018-07-04T22:53:03.184Z,5.77
2018-07-04T22:55:42.776Z,6.03
2018-07-04T22:58:22.473Z,6.07
2018-07-04T23:00:56.097Z,6.77
2018-07-04T23:03:35.810Z,6.50
2018-07-04T23:06:15.783Z,6.03
2018-07-04T23:08:55.341Z,6.77
2018-07-04T23:11:35.028Z,7.20
2018-07-04T23:14:14.736Z,6.83
2018-07-04T23:16:54.452Z,7.90
2018-07-04T23:19:35.087Z,7.20
2018-07-04T23:22:14.725Z,6.37
2018-07-04T23:24:54.375Z,7.07
2018-07-04T23:27:33.907Z,7.60
2018-07-04T23:30:13.496Z,7.20
2018-07-04T23:32:53.733Z,6.77
2018-07-04T23:35:33.280Z,7.13
2018-07-04T23:38:12.923Z,7.33
2018-07-04T23:40:52.583Z,7.53
2018-07-04T23:43:32.407Z,6.40
2018-07-04T23:46:05.910Z,6.37
2018-07-04T23:48:45.716Z,5.90
2018-07-04T23:51:25.391Z,6.57
2018-07-04T23:54:05.028Z,5.60
2018-07-04T23:56:44.651Z,6.47
2018-07-04T23:59:24.316Z,7.60
